createdAt,value
2022-08-16T00:09:21.078Z,5.50
2022-08-16T00:11:55.476Z,6.00
2022-08-16T00:14:34.822Z,5.60
2022-08-16T00:17:18.880Z,5.30
2022-08-16T00:19:53.353Z,4.60
2022-08-16T00:30:40.840Z,5.20
2022-08-16T00:33:07.283Z,4.90
2022-08-16T00:35:39.587Z,5.10
2022-08-16T00:38:41.297Z,5.40
2022-08-16T00:41:05.948Z,5.50
2022-08-16T00:43:45.404Z,5.40
2022-08-16T00:46:33.794Z,5.20
2022-08-16T00:49:17.606Z,5.60
2022-08-16T00:51:53.705Z,5.20
2022-08-16T00:54:28.111Z,5.50
2022-08-16T00:57:01.872Z,6.20
2022-08-16T00:59:34.465Z,5.90
2022-08-16T01:02:30.087Z,5.30
2022-08-16T01:05:11.170Z,5.10
2022-08-16T01:07:50.723Z,5.10
2022-08-16T01:10:32.201Z,4.80
2022-08-16T01:13:08.109Z,5.50
2022-08-16T01:15:43.063Z,5.20
2022-08-16T01:18:40.597Z,5.00
2022-08-16T01:21:16.848Z,5.20
2022-08-16T01:24:44.529Z,5.80
2022-08-16T01:27:07.363Z,6.40
2022-08-16T01:29:57.110Z,6.60
2022-08-16T01:32:33.373Z,5.00
2022-08-16T01:35:23.678Z,4.80
2022-08-16T01:37:57.294Z,5.00
2022-08-16T01:40:33.295Z,5.00
2022-08-16T01:43:04.725Z,6.60
2022-08-16T01:45:40.938Z,6.20
2022-08-16T01:48:20.404Z,6.20
2022-08-16T01:51:08.288Z,5.70
2022-08-16T01:53:42.079Z,6.40
2022-08-16T01:56:24.563Z,6.50
2022-08-16T01:58:57.256Z,5.30
2022-08-16T02:01:29.099Z,6.50
2022-08-16T02:04:10.749Z,5.10
2022-08-16T02:06:46.040Z,4.80
2022-08-16T02:09:17.745Z,6.90
2022-08-16T02:11:53.495Z,6.10
2022-08-16T02:14:26.455Z,6.70
2022-08-16T02:17:01.053Z,7.90
2022-08-16T02:19:59.920Z,8.50
2022-08-16T02:22:33.489Z,7.70
2022-08-16T02:25:09.811Z,7.60
2022-08-16T02:28:08.341Z,5.90
2022-08-16T02:30:44.251Z,5.80
2022-08-16T02:33:15.489Z,5.50
2022-08-16T02:35:54.062Z,5.70
2022-08-16T02:38:28.134Z,5.50
2022-08-16T02:40:59.340Z,6.00
2022-08-16T02:43:45.278Z,7.40
2022-08-16T02:46:29.969Z,6.30
2022-08-16T02:49:04.448Z,7.50
2022-08-16T02:51:42.835Z,7.70
2022-08-16T02:54:14.727Z,7.20
2022-08-16T02:56:47.939Z,7.30
2022-08-16T02:59:18.576Z,8.60
2022-08-16T03:01:49.597Z,8.60
2022-08-16T03:04:48.911Z,8.90
2022-08-16T03:07:09.835Z,9.10
2022-08-16T03:09:44.312Z,7.40
2022-08-16T03:12:16.455Z,7.80
2022-08-16T03:14:46.864Z,5.90
2022-08-16T03:17:16.916Z,6.40
2022-08-16T03:19:59.501Z,6.30
2022-08-16T03:22:30.429Z,7.60
2022-08-16T03:25:09.865Z,6.50
2022-08-16T03:27:42.724Z,8.80
2022-08-16T03:30:18.654Z,6.20
2022-08-16T03:32:51.776Z,6.40
2022-08-16T03:35:32.606Z,6.50
2022-08-16T03:38:32.156Z,9.00
2022-08-16T03:41:01.016Z,9.80
2022-08-16T03:43:51.471Z,8.80
2022-08-16T03:46:47.537Z,9.00
2022-08-16T03:49:13.174Z,7.50
2022-08-16T03:51:44.085Z,6.30
2022-08-16T03:54:13.989Z,6.60
2022-08-16T03:56:57.992Z,8.70
2022-08-16T03:59:29.616Z,5.90
2022-08-16T04:02:01.535Z,6.90
2022-08-16T04:04:35.663Z,6.90
2022-08-16T04:07:08.102Z,6.70
2022-08-16T04:09:38.619Z,6.10
2022-08-16T04:12:11.384Z,6.60
2022-08-16T04:15:02.307Z,6.30
2022-08-16T04:18:00.229Z,6.70
2022-08-16T04:24:40.641Z,8.90
2022-08-16T04:27:24.590Z,7.60
2022-08-16T04:30:35.048Z,8.90
2022-08-16T04:33:08.682Z,8.30
2022-08-16T04:36:11.572Z,7.90
2022-08-16T04:39:15.752Z,7.00
2022-08-16T04:42:45.127Z,7.80
2022-08-16T04:45:35.838Z,8.60
2022-08-16T04:48:08.522Z,6.50
2022-08-16T04:51:07.857Z,7.90
2022-08-16T04:54:03.764Z,6.70
2022-08-16T04:56:43.034Z,7.80
2022-08-16T04:59:29.499Z,7.00
2022-08-16T05:02:41.577Z,8.50
2022-08-16T05:04:54.852Z,8.20
2022-08-16T05:07:38.275Z,7.90
2022-08-16T05:10:19.471Z,7.50
2022-08-16T05:12:49.600Z,7.50
2022-08-16T05:15:20.451Z,6.60
2022-08-16T05:18:05.217Z,7.00
2022-08-16T05:21:10.959Z,6.40
2022-08-16T05:23:55.747Z,7.80
2022-08-16T05:27:42.877Z,8.30
2022-08-16T05:30:34.971Z,8.70
2022-08-16T05:33:16.447Z,7.10
2022-08-16T05:37:39.748Z,7.80
2022-08-16T05:49:45.740Z,6.50
2022-08-16T05:50:05.329Z,7.70
2022-08-16T05:52:22.454Z,6.30
2022-08-16T05:55:01.504Z,8.60
2022-08-16T05:57:35.444Z,8.60
2022-08-16T06:00:09.313Z,9.00
2022-08-16T06:02:41.977Z,8.50
2022-08-16T06:05:12.606Z,9.10
2022-08-16T06:07:45.002Z,8.70
2022-08-16T06:10:32.242Z,9.10
2022-08-16T06:13:04.849Z,8.90
2022-08-16T06:15:37.566Z,9.10
2022-08-16T06:18:11.200Z,9.30
2022-08-16T06:20:55.197Z,8.70
2022-08-16T06:23:32.384Z,8.60
2022-08-16T06:26:04.539Z,9.70
2022-08-16T06:28:39.825Z,8.20
2022-08-16T06:31:18.263Z,9.40
2022-08-16T06:33:54.145Z,9.40
2022-08-16T06:36:39.669Z,8.80
2022-08-16T06:39:13.857Z,10.20
2022-08-16T06:41:49.565Z,9.20
2022-08-16T06:44:24.453Z,9.00
2022-08-16T06:47:53.746Z,8.70
2022-08-16T06:50:28.774Z,8.40
2022-08-16T06:53:15.109Z,8.80
2022-08-16T06:55:48.764Z,7.80
2022-08-16T06:58:31.325Z,8.60
2022-08-16T07:01:15.706Z,8.40
2022-08-16T07:04:31.696Z,8.10
2022-08-16T07:07:14.556Z,8.10
2022-08-16T07:09:45.099Z,7.20
2022-08-16T07:12:19.272Z,7.50
2022-08-16T07:14:49.023Z,8.00
2022-08-16T07:17:21.138Z,6.90
2022-08-16T07:20:03.778Z,7.50
2022-08-16T07:22:59.230Z,6.60
2022-08-16T07:25:31.952Z,6.80
2022-08-16T07:31:37.729Z,7.20
2022-08-16T07:41:23.214Z,6.40
2022-08-16T07:41:27.578Z,7.10
2022-08-16T07:43:52.274Z,7.50
2022-08-16T07:46:39.145Z,7.50
2022-08-16T07:51:45.280Z,7.80
2022-08-16T07:54:21.238Z,8.10
2022-08-16T07:57:02.354Z,7.80
2022-08-16T07:59:42.833Z,7.70
2022-08-16T08:02:43.581Z,7.30
2022-08-16T08:05:16.070Z,7.90
2022-08-16T08:11:09.555Z,8.40
2022-08-16T08:13:44.949Z,8.00
2022-08-16T08:16:30.568Z,8.20
2022-08-16T08:19:02.925Z,8.60
2022-08-16T08:22:00.662Z,9.00
2022-08-16T08:24:31.512Z,9.00
2022-08-16T08:27:04.341Z,8.20
2022-08-16T08:29:40.372Z,8.20
2022-08-16T08:35:04.989Z,8.00
2022-08-16T08:37:54.366Z,7.60
2022-08-16T08:40:29.319Z,8.00
2022-08-16T08:43:11.798Z,8.80
2022-08-16T08:45:58.301Z,7.80
2022-08-16T08:48:33.977Z,8.20
2022-08-16T08:51:11.132Z,7.60
2022-08-16T08:53:41.093Z,8.50
2022-08-16T08:56:23.278Z,8.60
2022-08-16T08:58:59.971Z,8.10
2022-08-16T09:01:43.105Z,8.40
2022-08-16T09:04:28.841Z,7.80
2022-08-16T09:07:04.817Z,8.60
2022-08-16T09:09:40.902Z,8.20
2022-08-16T09:12:35.495Z,7.80
2022-08-16T09:15:08.754Z,8.00
2022-08-16T09:17:52.387Z,8.00
2022-08-16T09:20:26.640Z,8.20
2022-08-16T09:22:58.713Z,8.70
2022-08-16T09:25:35.492Z,8.30
2022-08-16T09:28:10.713Z,7.30
2022-08-16T09:30:44.215Z,7.40
2022-08-16T09:33:18.095Z,8.40
2022-08-16T09:35:53.642Z,7.50
2022-08-16T09:38:32.244Z,7.10
2022-08-16T09:41:03.343Z,7.40
2022-08-16T09:43:58.330Z,7.40
2022-08-16T09:46:45.508Z,7.50
2022-08-16T09:49:19.938Z,7.50
2022-08-16T09:51:54.342Z,7.70
2022-08-16T09:54:32.173Z,7.30
2022-08-16T09:57:05.131Z,7.80
2022-08-16T09:59:38.525Z,7.80
2022-08-16T10:02:26.411Z,7.20
2022-08-16T10:04:59.417Z,6.80
2022-08-16T10:07:45.050Z,7.00
2022-08-16T10:10:18.867Z,7.00
2022-08-16T10:13:16.329Z,7.00
2022-08-16T10:15:54.849Z,7.10
2022-08-16T10:18:56.787Z,6.70
2022-08-16T10:21:17.862Z,7.20
2022-08-16T10:23:49.063Z,7.50
2022-08-16T10:27:18.900Z,7.40
2022-08-16T10:29:19.863Z,6.90
2022-08-16T10:31:53.087Z,7.40
2022-08-16T10:34:30.689Z,6.90
2022-08-16T10:37:01.961Z,6.90
2022-08-16T10:39:41.754Z,6.60
2022-08-16T10:42:14.447Z,7.10
2022-08-16T10:45:39.413Z,6.80
2022-08-16T10:48:00.838Z,7.30
2022-08-16T10:50:41.026Z,6.90
2022-08-16T10:53:23.029Z,7.20
2022-08-16T10:55:57.468Z,6.90
2022-08-16T10:58:34.443Z,7.10
2022-08-16T11:03:57.828Z,7.10
2022-08-16T11:06:28.935Z,7.20
2022-08-16T11:12:14.187Z,6.80
2022-08-16T11:17:36.508Z,7.70
2022-08-16T11:23:08.368Z,6.80
2022-08-16T11:31:19.171Z,6.60
2022-08-16T11:33:52.586Z,7.20
2022-08-16T11:36:28.172Z,7.00
2022-08-16T11:39:04.778Z,6.50
2022-08-16T11:48:47.864Z,7.80
2022-08-16T11:51:03.433Z,6.40
2022-08-16T11:51:19.630Z,7.10
2022-08-16T11:54:23.491Z,6.70
2022-08-16T11:57:11.497Z,6.00
2022-08-16T11:59:58.007Z,6.30
2022-08-16T12:02:37.279Z,6.20
2022-08-16T12:05:23.158Z,6.40
2022-08-16T12:08:07.337Z,6.80
2022-08-16T12:11:03.875Z,6.80
2022-08-16T12:13:41.478Z,6.60
2022-08-16T12:17:46.459Z,6.20
2022-08-16T12:20:18.573Z,6.40
2022-08-16T12:26:34.865Z,6.60
2022-08-16T12:30:21.804Z,6.20
2022-08-16T12:40:38.733Z,5.70
2022-08-16T12:43:16.043Z,6.40
2022-08-16T12:45:49.342Z,6.10
2022-08-16T12:48:50.793Z,5.90
2022-08-16T12:51:30.586Z,6.30
2022-08-16T12:54:09.266Z,6.60
2022-08-16T12:57:00.437Z,7.10
2022-08-16T12:59:33.459Z,6.60
2022-08-16T13:02:22.785Z,6.30
2022-08-16T13:05:02.979Z,6.60
2022-08-16T13:07:51.195Z,6.00
2022-08-16T13:10:36.822Z,6.40
2022-08-16T13:15:51.492Z,6.60
2022-08-16T13:18:34.195Z,6.40
2022-08-16T13:21:07.404Z,6.40
2022-08-16T13:23:43.234Z,6.90
2022-08-16T13:26:17.770Z,7.30
2022-08-16T13:28:48.112Z,7.20
2022-08-16T13:31:17.923Z,7.10
2022-08-16T13:33:47.351Z,7.10
2022-08-16T13:36:32.153Z,7.30
2022-08-16T13:39:09.333Z,7.40
2022-08-16T13:41:40.180Z,7.70
2022-08-16T13:44:10.290Z,7.70
2022-08-16T13:46:41.228Z,7.60
2022-08-16T13:49:14.980Z,7.40
2022-08-16T13:51:44.865Z,7.80
2022-08-16T13:57:05.465Z,7.70
2022-08-16T13:59:38.041Z,7.80
2022-08-16T14:02:11.333Z,7.50
2022-08-16T14:05:02.724Z,8.00
2022-08-16T14:07:40.470Z,8.30
2022-08-16T14:10:16.435Z,8.30
2022-08-16T14:12:45.904Z,9.10
2022-08-16T14:15:18.302Z,9.10
2022-08-16T14:18:17.464Z,8.80
2022-08-16T14:20:38.705Z,8.80
2022-08-16T14:23:07.947Z,8.60
2022-08-16T14:25:39.831Z,9.00
2022-08-16T14:28:10.172Z,8.40
2022-08-16T14:30:42.391Z,7.90
2022-08-16T14:33:11.849Z,7.50
2022-08-16T14:35:50.325Z,7.60
2022-08-16T14:38:23.736Z,7.30
2022-08-16T14:40:55.123Z,7.60
2022-08-16T14:43:25.728Z,7.00
2022-08-16T14:45:59.461Z,6.80
2022-08-16T14:48:29.054Z,7.60
2022-08-16T14:51:02.058Z,7.60
2022-08-16T14:53:35.319Z,7.50
2022-08-16T14:56:38.447Z,8.00
2022-08-16T14:59:12.452Z,7.40
2022-08-16T15:02:01.959Z,7.60
2022-08-16T15:07:52.135Z,6.20
2022-08-16T15:10:24.317Z,5.90
2022-08-16T15:12:59.250Z,5.70
2022-08-16T15:15:35.269Z,5.30
2022-08-16T15:18:06.993Z,5.80
2022-08-16T15:20:43.948Z,5.70
2022-08-16T15:23:15.178Z,5.70
2022-08-16T15:26:34.833Z,5.50
2022-08-16T15:29:23.181Z,5.50
2022-08-16T15:32:00.635Z,5.20
2022-08-16T15:34:31.287Z,5.90
2022-08-16T15:37:02.779Z,6.10
2022-08-16T15:39:38.830Z,5.40
2022-08-16T15:42:27.432Z,5.10
2022-08-16T15:45:00.433Z,5.10
2022-08-16T15:47:33.556Z,5.20
2022-08-16T15:50:11.575Z,4.80
2022-08-16T15:52:48.206Z,4.80
2022-08-16T15:59:17.310Z,4.70
2022-08-16T16:06:12.969Z,4.30
2022-08-16T16:08:44.981Z,4.40
2022-08-16T16:14:44.663Z,4.10
2022-08-16T16:14:52.989Z,4.20
2022-08-16T16:17:31.170Z,4.30
2022-08-16T16:20:01.472Z,4.70
2022-08-16T16:22:52.012Z,4.10
2022-08-16T16:25:23.928Z,4.60
2022-08-16T16:27:55.318Z,4.50
2022-08-16T16:30:44.947Z,4.40
2022-08-16T16:33:20.847Z,4.40
2022-08-16T16:35:55.143Z,4.60
2022-08-16T16:38:32.266Z,4.20
2022-08-16T16:41:09.217Z,4.10
2022-08-16T16:44:00.150Z,4.70
2022-08-16T16:46:43.205Z,4.70
2022-08-16T16:52:44.442Z,4.30
2022-08-16T16:52:45.218Z,4.50
2022-08-16T16:55:22.259Z,4.50
2022-08-16T16:58:28.957Z,4.30
2022-08-16T17:01:05.732Z,4.40
2022-08-16T17:03:41.325Z,4.40
2022-08-16T17:10:12.740Z,3.90
2022-08-16T17:13:21.898Z,4.60
2022-08-16T17:15:52.374Z,4.80
2022-08-16T17:21:37.140Z,6.00
2022-08-16T17:23:14.543Z,12.30
2022-08-16T17:25:52.073Z,11.10
2022-08-16T17:28:58.422Z,7.90
2022-08-16T17:31:17.083Z,6.90
2022-08-16T17:34:30.660Z,7.00
2022-08-16T17:51:43.430Z,6.00
2022-08-16T17:54:37.047Z,6.20
2022-08-16T17:57:16.968Z,6.10
2022-08-16T18:26:44.607Z,7.60
2022-08-16T18:26:46.496Z,7.70
2022-08-16T18:29:27.097Z,7.90
2022-08-16T18:32:44.067Z,8.00
2022-08-16T18:35:15.844Z,8.30
2022-08-16T18:37:52.472Z,8.50
2022-08-16T19:30:12.430Z,16.30
2022-08-16T20:22:53.952Z,6.50
2022-08-16T20:30:13.928Z,9.90
2022-08-16T20:35:45.561Z,10.80
2022-08-16T20:36:25.811Z,10.80
2022-08-16T20:42:42.330Z,11.00
2022-08-16T20:45:42.299Z,11.70
2022-08-16T20:48:26.939Z,7.40
2022-08-16T20:50:58.184Z,10.20
2022-08-16T20:56:59.619Z,8.30
2022-08-16T20:59:36.302Z,9.10
2022-08-16T21:03:04.777Z,8.50
2022-08-16T21:05:48.498Z,9.00
2022-08-16T21:06:23.716Z,7.90
2022-08-16T21:13:25.946Z,8.40
2022-08-16T22:02:46.668Z,8.10
2022-08-16T22:05:19.976Z,8.20
2022-08-16T22:08:05.320Z,8.50
2022-08-16T22:11:07.444Z,8.00
2022-08-16T22:13:30.309Z,7.60
2022-08-16T22:16:03.622Z,8.40
2022-08-16T22:18:33.055Z,8.60
2022-08-16T22:21:02.944Z,9.80
2022-08-16T22:23:34.159Z,8.70
2022-08-16T22:26:03.677Z,8.60
2022-08-16T22:28:33.350Z,9.30
2022-08-16T22:31:02.764Z,10.10
2022-08-16T22:33:34.158Z,11.90
2022-08-16T22:36:08.112Z,11.90
2022-08-16T22:38:54.504Z,9.20
2022-08-16T22:41:30.307Z,11.40
2022-08-16T22:44:05.074Z,9.10
2022-08-16T22:46:38.314Z,8.90
2022-08-16T22:49:13.466Z,9.70
2022-08-16T22:51:42.725Z,10.00
2022-08-16T22:54:41.279Z,11.50
2022-08-16T22:57:07.991Z,9.60
2022-08-16T23:00:05.805Z,10.50
2022-08-16T23:02:35.019Z,10.20
2022-08-16T23:05:10.255Z,10.30
2022-08-16T23:07:39.738Z,8.50
2022-08-16T23:10:10.406Z,8.40
2022-08-16T23:12:49.801Z,9.60
2022-08-16T23:15:23.207Z,10.60
2022-08-16T23:17:55.293Z,9.20
2022-08-16T23:20:27.252Z,9.40
2022-08-16T23:23:18.981Z,9.70
2022-08-16T23:25:51.841Z,9.10
2022-08-16T23:28:27.248Z,7.90
2022-08-16T23:30:58.419Z,9.10
2022-08-16T23:33:28.995Z,9.90
2022-08-16T23:36:00.808Z,9.20
2022-08-16T23:41:50.829Z,10.20
2022-08-16T23:41:56.583Z,9.40
2022-08-16T23:44:42.325Z,9.80
2022-08-16T23:47:15.385Z,8.70
2022-08-16T23:50:01.413Z,9.10
2022-08-16T23:52:42.166Z,8.90
2022-08-16T23:55:22.529Z,8.60
2022-08-16T23:57:52.398Z,8.70
